sensor_id;sensor_type;location;lat;lon;timestamp;temperature;humidity
43651;DHT22;29247;50.944;5.382;2024-01-15T00:00:57;21.60;49.60
43651;DHT22;29247;50.944;5.382;2024-01-15T00:03:22;21.50;49.60
43651;DHT22;29247;50.944;5.382;2024-01-15T00:05:48;21.50;49.70
43651;DHT22;29247;50.944;5.382;2024-01-15T00:08:14;21.50;49.70
43651;DHT22;29247;50.944;5.382;2024-01-15T00:10:39;21.50;49.70
43651;DHT22;29247;50.944;5.382;2024-01-15T00:13:06;21.50;49.80
43651;DHT22;29247;50.944;5.382;2024-01-15T00:15:37;21.50;49.80
43651;DHT22;29247;50.944;5.382;2024-01-15T00:18:02;21.40;49.70
43651;DHT22;29247;50.944;5.382;2024-01-15T00:20:28;21.40;49.80
43651;DHT22;29247;50.944;5.382;2024-01-15T00:22:53;21.40;50.00
43651;DHT22;29247;50.944;5.382;2024-01-15T00:25:19;21.40;50.00
43651;DHT22;29247;50.944;5.382;2024-01-15T00:27:47;21.40;50.10
43651;DHT22;29247;50.944;5.382;2024-01-15T00:30:13;21.30;50.00
43651;DHT22;29247;50.944;5.382;2024-01-15T00:32:39;21.30;50.00
43651;DHT22;29247;50.944;5.382;2024-01-15T00:35:07;21.30;50.10
43651;DHT22;29247;50.944;5.382;2024-01-15T00:37:33;21.30;50.10
43651;DHT22;29247;50.944;5.382;2024-01-15T00:39:59;21.30;50.20
43651;DHT22;29247;50.944;5.382;2024-01-15T00:42:24;21.30;50.20
43651;DHT22;29247;50.944;5.382;2024-01-15T00:44:50;21.30;50.20
43651;DHT22;29247;50.944;5.382;2024-01-15T00:47:17;21.20;50.30
43651;DHT22;29247;50.944;5.382;2024-01-15T00:49:43;21.20;50.90
43651;DHT22;29247;50.944;5.382;2024-01-15T00:52:08;21.20;50.30
43651;DHT22;29247;50.944;5.382;2024-01-15T00:54:36;21.20;50.40
43651;DHT22;29247;50.944;5.382;2024-01-15T00:57:03;21.20;50.40
43651;DHT22;29247;50.944;5.382;2024-01-15T00:59:31;21.20;50.40
43651;DHT22;29247;50.944;5.382;2024-01-15T01:01:57;21.10;50.40
43651;DHT22;29247;50.944;5.382;2024-01-15T01:04:22;21.10;50.50
43651;DHT22;29247;50.944;5.382;2024-01-15T01:06:48;21.10;50.50
43651;DHT22;29247;50.944;5.382;2024-01-15T01:09:16;21.10;50.50
43651;DHT22;29247;50.944;5.382;2024-01-15T01:11:41;21.10;50.60
43651;DHT22;29247;50.944;5.382;2024-01-15T01:14:07;21.00;50.60
43651;DHT22;29247;50.944;5.382;2024-01-15T01:16:32;21.10;50.70
43651;DHT22;29247;50.944;5.382;2024-01-15T01:19:06;21.10;50.70
43651;DHT22;29247;50.944;5.382;2024-01-15T01:21:33;21.00;50.70
43651;DHT22;29247;50.944;5.382;2024-01-15T01:23:59;21.00;50.70
43651;DHT22;29247;50.944;5.382;2024-01-15T01:26:25;21.00;50.80
43651;DHT22;29247;50.944;5.382;2024-01-15T01:28:50;21.00;50.80
43651;DHT22;29247;50.944;5.382;2024-01-15T01:31:16;21.00;50.90
43651;DHT22;29247;50.944;5.382;2024-01-15T01:33:44;20.90;50.80
43651;DHT22;29247;50.944;5.382;2024-01-15T01:36:10;20.90;50.80
43651;DHT22;29247;50.944;5.382;2024-01-15T01:38:36;20.90;51.20
43651;DHT22;29247;50.944;5.382;2024-01-15T01:41:02;20.90;50.90
43651;DHT22;29247;50.944;5.382;2024-01-15T01:43:28;20.90;51.00
43651;DHT22;29247;50.944;5.382;2024-01-15T01:45:56;20.90;51.10
43651;DHT22;29247;50.944;5.382;2024-01-15T01:48:25;20.90;51.00
43651;DHT22;29247;50.944;5.382;2024-01-15T01:50:56;20.90;51.10
43651;DHT22;29247;50.944;5.382;2024-01-15T01:53:24;20.80;51.10
43651;DHT22;29247;50.944;5.382;2024-01-15T01:55:51;20.80;51.10
43651;DHT22;29247;50.944;5.382;2024-01-15T01:58:18;20.80;51.10
43651;DHT22;29247;50.944;5.382;2024-01-15T02:00:47;20.80;51.10
43651;DHT22;29247;50.944;5.382;2024-01-15T02:03:14;20.80;51.20
43651;DHT22;29247;50.944;5.382;2024-01-15T02:05:43;20.80;51.20
43651;DHT22;29247;50.944;5.382;2024-01-15T02:08:10;20.70;51.20
43651;DHT22;29247;50.944;5.382;2024-01-15T02:10:35;20.70;51.20
43651;DHT22;29247;50.944;5.382;2024-01-15T02:13:02;20.70;51.30
43651;DHT22;29247;50.944;5.382;2024-01-15T02:15:27;20.70;51.30
43651;DHT22;29247;50.944;5.382;2024-01-15T02:20:25;20.70;51.30
43651;DHT22;29247;50.944;5.382;2024-01-15T02:22:51;20.70;51.30
43651;DHT22;29247;50.944;5.382;2024-01-15T02:25:17;20.70;51.40
43651;DHT22;29247;50.944;5.382;2024-01-15T02:27:44;20.60;51.40
43651;DHT22;29247;50.944;5.382;2024-01-15T02:30:12;20.60;51.40
43651;DHT22;29247;50.944;5.382;2024-01-15T02:32:38;20.60;51.50
43651;DHT22;29247;50.944;5.382;2024-01-15T02:35:06;20.60;51.50
43651;DHT22;29247;50.944;5.382;2024-01-15T02:37:34;20.60;51.50
43651;DHT22;29247;50.944;5.382;2024-01-15T02:40:01;20.60;51.60
43651;DHT22;29247;50.944;5.382;2024-01-15T02:42:26;20.50;51.60
43651;DHT22;29247;50.944;5.382;2024-01-15T02:44:52;20.50;51.70
43651;DHT22;29247;50.944;5.382;2024-01-15T02:47:20;20.50;51.60
43651;DHT22;29247;50.944;5.382;2024-01-15T02:49:48;20.50;51.70
43651;DHT22;29247;50.944;5.382;2024-01-15T02:52:14;20.50;51.70
43651;DHT22;29247;50.944;5.382;2024-01-15T02:54:39;20.50;51.70
43651;DHT22;29247;50.944;5.382;2024-01-15T02:57:05;20.40;51.70
43651;DHT22;29247;50.944;5.382;2024-01-15T02:59:30;20.40;51.70
43651;DHT22;29247;50.944;5.382;2024-01-15T03:02:01;20.40;51.80
43651;DHT22;29247;50.944;5.382;2024-01-15T03:04:26;20.40;51.80
43651;DHT22;29247;50.944;5.382;2024-01-15T03:06:52;20.40;51.90
43651;DHT22;29247;50.944;5.382;2024-01-15T03:09:18;20.40;51.90
43651;DHT22;29247;50.944;5.382;2024-01-15T03:11:43;20.40;52.00
43651;DHT22;29247;50.944;5.382;2024-01-15T03:14:09;20.40;52.00
43651;DHT22;29247;50.944;5.382;2024-01-15T03:16:34;20.40;52.00
43651;DHT22;29247;50.944;5.382;2024-01-15T03:19:01;20.30;51.90
43651;DHT22;29247;50.944;5.382;2024-01-15T03:21:29;20.40;52.00
43651;DHT22;29247;50.944;5.382;2024-01-15T03:23:54;20.30;52.00
43651;DHT22;29247;50.944;5.382;2024-01-15T03:26:22;20.40;52.10
43651;DHT22;29247;50.944;5.382;2024-01-15T03:28:48;20.30;52.10
43651;DHT22;29247;50.944;5.382;2024-01-15T03:31:14;20.40;52.10
43651;DHT22;29247;50.944;5.382;2024-01-15T03:33:39;20.40;52.10
43651;DHT22;29247;50.944;5.382;2024-01-15T03:36:08;20.40;52.20
43651;DHT22;29247;50.944;5.382;2024-01-15T03:38:33;20.40;52.10
43651;DHT22;29247;50.944;5.382;2024-01-15T03:40:59;20.40;52.10
43651;DHT22;29247;50.944;5.382;2024-01-15T03:43:27;20.40;52.20
43651;DHT22;29247;50.944;5.382;2024-01-15T03:45:53;20.40;52.10
43651;DHT22;29247;50.944;5.382;2024-01-15T03:48:19;20.40;52.10
43651;DHT22;29247;50.944;5.382;2024-01-15T03:50:44;20.40;52.20
43651;DHT22;29247;50.944;5.382;2024-01-15T03:53:12;20.50;52.20
43651;DHT22;29247;50.944;5.382;2024-01-15T03:55:40;20.50;52.20
43651;DHT22;29247;50.944;5.382;2024-01-15T03:58:06;20.50;52.20
43651;DHT22;29247;50.944;5.382;2024-01-15T04:00:32;20.50;52.20
43651;DHT22;29247;50.944;5.382;2024-01-15T04:02:57;20.50;52.20
43651;DHT22;29247;50.944;5.382;2024-01-15T04:05:23;20.50;52.20
43651;DHT22;29247;50.944;5.382;2024-01-15T04:07:48;20.60;52.20
43651;DHT22;29247;50.944;5.382;2024-01-15T04:10:14;20.60;52.20
43651;DHT22;29247;50.944;5.382;2024-01-15T04:12:40;20.60;52.10
43651;DHT22;29247;50.944;5.382;2024-01-15T04:15:06;20.60;52.10
43651;DHT22;29247;50.944;5.382;2024-01-15T04:17:31;20.60;52.00
43651;DHT22;29247;50.944;5.382;2024-01-15T04:19:59;20.60;52.00
43651;DHT22;29247;50.944;5.382;2024-01-15T04:22:26;20.60;51.90
43651;DHT22;29247;50.944;5.382;2024-01-15T04:24:52;20.60;51.90
43651;DHT22;29247;50.944;5.382;2024-01-15T04:27:17;20.60;51.90
43651;DHT22;29247;50.944;5.382;2024-01-15T04:29:45;20.60;51.90
43651;DHT22;29247;50.944;5.382;2024-01-15T04:32:11;20.60;52.00
43651;DHT22;29247;50.944;5.382;2024-01-15T04:34:36;20.50;51.90
43651;DHT22;29247;50.944;5.382;2024-01-15T04:37:02;20.50;51.90
43651;DHT22;29247;50.944;5.382;2024-01-15T04:39:28;20.50;52.00
43651;DHT22;29247;50.944;5.382;2024-01-15T04:41:53;20.50;52.00
43651;DHT22;29247;50.944;5.382;2024-01-15T04:44:21;20.50;52.00
43651;DHT22;29247;50.944;5.382;2024-01-15T04:46:47;20.50;52.00
43651;DHT22;29247;50.944;5.382;2024-01-15T04:49:13;20.50;52.00
43651;DHT22;29247;50.944;5.382;2024-01-15T04:51:38;20.40;52.00
43651;DHT22;29247;50.944;5.382;2024-01-15T04:54:06;20.40;52.10
43651;DHT22;29247;50.944;5.382;2024-01-15T04:56:32;20.40;52.10
43651;DHT22;29247;50.944;5.382;2024-01-15T04:59:00;20.40;52.10
43651;DHT22;29247;50.944;5.382;2024-01-15T05:01:29;20.40;52.80
43651;DHT22;29247;50.944;5.382;2024-01-15T05:03:55;20.40;52.20
43651;DHT22;29247;50.944;5.382;2024-01-15T05:06:20;20.30;52.20
43651;DHT22;29247;50.944;5.382;2024-01-15T05:08:46;20.30;52.20
43651;DHT22;29247;50.944;5.382;2024-01-15T05:11:11;20.30;52.20
43651;DHT22;29247;50.944;5.382;2024-01-15T05:13:40;20.30;52.20
43651;DHT22;29247;50.944;5.382;2024-01-15T05:16:06;20.30;52.30
43651;DHT22;29247;50.944;5.382;2024-01-15T05:18:31;20.20;52.30
43651;DHT22;29247;50.944;5.382;2024-01-15T05:20:57;20.20;52.30
43651;DHT22;29247;50.944;5.382;2024-01-15T05:23:22;20.20;52.30
43651;DHT22;29247;50.944;5.382;2024-01-15T05:25:48;20.20;52.40
43651;DHT22;29247;50.944;5.382;2024-01-15T05:28:14;20.20;52.40
43651;DHT22;29247;50.944;5.382;2024-01-15T05:30:40;20.20;52.40
43651;DHT22;29247;50.944;5.382;2024-01-15T05:33:05;20.20;52.50
43651;DHT22;29247;50.944;5.382;2024-01-15T05:35:33;20.20;52.60
43651;DHT22;29247;50.944;5.382;2024-01-15T05:38:01;20.20;52.60
43651;DHT22;29247;50.944;5.382;2024-01-15T05:40:30;20.20;52.60
43651;DHT22;29247;50.944;5.382;2024-01-15T05:42:56;20.20;52.60
43651;DHT22;29247;50.944;5.382;2024-01-15T05:45:25;20.20;52.70
43651;DHT22;29247;50.944;5.382;2024-01-15T05:47:51;20.20;52.70
43651;DHT22;29247;50.944;5.382;2024-01-15T05:50:16;20.20;52.70
43651;DHT22;29247;50.944;5.382;2024-01-15T05:52:42;20.20;52.70
43651;DHT22;29247;50.944;5.382;2024-01-15T05:55:10;20.20;52.70
43651;DHT22;29247;50.944;5.382;2024-01-15T05:57:36;20.20;52.80
43651;DHT22;29247;50.944;5.382;2024-01-15T06:00:03;20.30;52.80
43651;DHT22;29247;50.944;5.382;2024-01-15T06:02:33;20.30;52.90
43651;DHT22;29247;50.944;5.382;2024-01-15T06:04:59;20.30;53.10
43651;DHT22;29247;50.944;5.382;2024-01-15T06:07:24;20.40;53.40
43651;DHT22;29247;50.944;5.382;2024-01-15T06:09:50;20.40;53.60
43651;DHT22;29247;50.944;5.382;2024-01-15T06:12:16;20.40;53.70
43651;DHT22;29247;50.944;5.382;2024-01-15T06:14:41;20.40;53.80
43651;DHT22;29247;50.944;5.382;2024-01-15T06:17:08;20.50;53.90
43651;DHT22;29247;50.944;5.382;2024-01-15T06:19:33;20.50;53.90
43651;DHT22;29247;50.944;5.382;2024-01-15T06:21:59;20.50;53.90
43651;DHT22;29247;50.944;5.382;2024-01-15T06:24:27;20.60;53.80
43651;DHT22;29247;50.944;5.382;2024-01-15T06:26:52;20.60;53.70
43651;DHT22;29247;50.944;5.382;2024-01-15T06:29:18;20.60;53.50
43651;DHT22;29247;50.944;5.382;2024-01-15T06:31:46;20.60;53.70
43651;DHT22;29247;50.944;5.382;2024-01-15T06:34:15;20.70;53.90
43651;DHT22;29247;50.944;5.382;2024-01-15T06:36:40;20.70;54.00
43651;DHT22;29247;50.944;5.382;2024-01-15T06:39:06;20.80;54.00
43651;DHT22;29247;50.944;5.382;2024-01-15T06:41:32;20.80;54.60
43651;DHT22;29247;50.944;5.382;2024-01-15T06:44:00;20.80;53.90
43651;DHT22;29247;50.944;5.382;2024-01-15T06:46:28;20.90;53.80
43651;DHT22;29247;50.944;5.382;2024-01-15T06:48:53;20.90;53.70
43651;DHT22;29247;50.944;5.382;2024-01-15T06:51:19;20.80;53.60
43651;DHT22;29247;50.944;5.382;2024-01-15T06:53:44;20.90;53.50
43651;DHT22;29247;50.944;5.382;2024-01-15T06:56:10;20.90;53.50
43651;DHT22;29247;50.944;5.382;2024-01-15T06:58:38;20.90;53.50
43651;DHT22;29247;50.944;5.382;2024-01-15T07:01:06;20.90;53.50
43651;DHT22;29247;50.944;5.382;2024-01-15T07:03:33;20.90;53.40
43651;DHT22;29247;50.944;5.382;2024-01-15T07:05:59;20.90;53.40
43651;DHT22;29247;50.944;5.382;2024-01-15T07:08:24;20.90;53.40
43651;DHT22;29247;50.944;5.382;2024-01-15T07:10:50;20.90;53.40
43651;DHT22;29247;50.944;5.382;2024-01-15T07:13:15;20.90;53.40
43651;DHT22;29247;50.944;5.382;2024-01-15T07:15:43;20.90;53.20
43651;DHT22;29247;50.944;5.382;2024-01-15T07:18:09;20.90;52.90
43651;DHT22;29247;50.944;5.382;2024-01-15T07:20:34;20.90;52.60
43651;DHT22;29247;50.944;5.382;2024-01-15T07:23:02;20.90;52.50
43651;DHT22;29247;50.944;5.382;2024-01-15T07:25:29;20.80;52.20
43651;DHT22;29247;50.944;5.382;2024-01-15T07:27:55;20.90;52.20
43651;DHT22;29247;50.944;5.382;2024-01-15T07:30:22;20.80;52.10
43651;DHT22;29247;50.944;5.382;2024-01-15T07:32:49;20.90;52.00
43651;DHT22;29247;50.944;5.382;2024-01-15T07:35:15;20.90;51.90
43651;DHT22;29247;50.944;5.382;2024-01-15T07:37:43;20.90;51.80
43651;DHT22;29247;50.944;5.382;2024-01-15T07:40:10;20.90;51.80
43651;DHT22;29247;50.944;5.382;2024-01-15T07:42:36;20.90;51.70
43651;DHT22;29247;50.944;5.382;2024-01-15T07:45:04;20.90;51.50
43651;DHT22;29247;50.944;5.382;2024-01-15T07:47:32;20.90;51.40
43651;DHT22;29247;50.944;5.382;2024-01-15T07:49:58;21.00;51.40
43651;DHT22;29247;50.944;5.382;2024-01-15T07:52:24;21.00;51.30
43651;DHT22;29247;50.944;5.382;2024-01-15T07:54:54;21.00;51.30
43651;DHT22;29247;50.944;5.382;2024-01-15T07:57:20;21.00;51.30
43651;DHT22;29247;50.944;5.382;2024-01-15T07:59:48;21.00;51.30
43651;DHT22;29247;50.944;5.382;2024-01-15T08:02:14;21.10;51.40
43651;DHT22;29247;50.944;5.382;2024-01-15T08:04:42;21.10;52.00
43651;DHT22;29247;50.944;5.382;2024-01-15T08:07:08;21.10;51.50
43651;DHT22;29247;50.944;5.382;2024-01-15T08:09:36;21.10;51.50
43651;DHT22;29247;50.944;5.382;2024-01-15T08:12:02;21.10;51.40
43651;DHT22;29247;50.944;5.382;2024-01-15T08:14:33;21.10;51.40
43651;DHT22;29247;50.944;5.382;2024-01-15T08:16:59;21.10;51.30
43651;DHT22;29247;50.944;5.382;2024-01-15T08:19:27;21.20;51.30
43651;DHT22;29247;50.944;5.382;2024-01-15T08:21:53;21.20;51.20
43651;DHT22;29247;50.944;5.382;2024-01-15T08:24:18;21.20;51.10
43651;DHT22;29247;50.944;5.382;2024-01-15T08:26:44;21.20;51.00
43651;DHT22;29247;50.944;5.382;2024-01-15T08:29:10;21.20;50.90
43651;DHT22;29247;50.944;5.382;2024-01-15T08:31:36;21.20;50.70
43651;DHT22;29247;50.944;5.382;2024-01-15T08:34:02;21.20;50.60
43651;DHT22;29247;50.944;5.382;2024-01-15T08:36:28;21.30;50.30
43651;DHT22;29247;50.944;5.382;2024-01-15T08:38:57;21.30;50.30
43651;DHT22;29247;50.944;5.382;2024-01-15T08:41:22;21.30;50.30
43651;DHT22;29247;50.944;5.382;2024-01-15T08:43:49;21.30;50.30
43651;DHT22;29247;50.944;5.382;2024-01-15T08:46:14;21.30;50.20
43651;DHT22;29247;50.944;5.382;2024-01-15T08:48:42;21.40;50.20
43651;DHT22;29247;50.944;5.382;2024-01-15T08:51:08;21.40;50.30
43651;DHT22;29247;50.944;5.382;2024-01-15T08:53:34;21.40;50.40
43651;DHT22;29247;50.944;5.382;2024-01-15T08:55:59;21.40;50.50
43651;DHT22;29247;50.944;5.382;2024-01-15T08:58:27;21.40;50.60
43651;DHT22;29247;50.944;5.382;2024-01-15T09:00:53;21.40;50.70
43651;DHT22;29247;50.944;5.382;2024-01-15T09:03:19;21.40;50.70
43651;DHT22;29247;50.944;5.382;2024-01-15T09:05:45;21.50;50.70
43651;DHT22;29247;50.944;5.382;2024-01-15T09:08:10;21.50;50.60
43651;DHT22;29247;50.944;5.382;2024-01-15T09:10:36;21.50;50.60
43651;DHT22;29247;50.944;5.382;2024-01-15T09:13:02;21.50;50.60
43651;DHT22;29247;50.944;5.382;2024-01-15T09:15:30;21.50;50.50
43651;DHT22;29247;50.944;5.382;2024-01-15T09:17:55;21.50;50.50
43651;DHT22;29247;50.944;5.382;2024-01-15T09:20:23;21.50;50.50
43651;DHT22;29247;50.944;5.382;2024-01-15T09:22:51;21.50;50.50
43651;DHT22;29247;50.944;5.382;2024-01-15T09:25:19;21.50;50.50
43651;DHT22;29247;50.944;5.382;2024-01-15T09:27:47;21.50;50.50
43651;DHT22;29247;50.944;5.382;2024-01-15T09:30:13;21.50;50.50
43651;DHT22;29247;50.944;5.382;2024-01-15T09:32:42;21.60;50.50
43651;DHT22;29247;50.944;5.382;2024-01-15T09:35:08;21.60;50.40
43651;DHT22;29247;50.944;5.382;2024-01-15T09:37:34;21.60;50.20
43651;DHT22;29247;50.944;5.382;2024-01-15T09:40:02;21.60;50.30
43651;DHT22;29247;50.944;5.382;2024-01-15T09:42:29;21.60;50.30
43651;DHT22;29247;50.944;5.382;2024-01-15T09:44:55;21.60;50.40
43651;DHT22;29247;50.944;5.382;2024-01-15T09:47:21;21.60;50.40
43651;DHT22;29247;50.944;5.382;2024-01-15T09:49:49;21.60;50.30
43651;DHT22;29247;50.944;5.382;2024-01-15T09:52:16;21.60;50.30
43651;DHT22;29247;50.944;5.382;2024-01-15T09:54:44;21.60;50.20
43651;DHT22;29247;50.944;5.382;2024-01-15T09:57:11;21.60;50.10
43651;DHT22;29247;50.944;5.382;2024-01-15T09:59:37;21.60;50.10
43651;DHT22;29247;50.944;5.382;2024-01-15T10:02:04;21.60;50.10
43651;DHT22;29247;50.944;5.382;2024-01-15T10:04:31;21.70;50.30
43651;DHT22;29247;50.944;5.382;2024-01-15T10:07:00;21.70;50.40
43651;DHT22;29247;50.944;5.382;2024-01-15T10:09:28;21.70;50.40
43651;DHT22;29247;50.944;5.382;2024-01-15T10:11:54;21.70;50.50
43651;DHT22;29247;50.944;5.382;2024-01-15T10:14:19;21.70;50.50
43651;DHT22;29247;50.944;5.382;2024-01-15T10:16:45;21.70;50.60
43651;DHT22;29247;50.944;5.382;2024-01-15T10:19:11;21.70;50.70
43651;DHT22;29247;50.944;5.382;2024-01-15T10:21:37;21.70;50.70
43651;DHT22;29247;50.944;5.382;2024-01-15T10:24:03;21.70;50.70
43651;DHT22;29247;50.944;5.382;2024-01-15T10:26:30;21.80;50.80
43651;DHT22;29247;50.944;5.382;2024-01-15T10:28:58;21.80;50.90
43651;DHT22;29247;50.944;5.382;2024-01-15T10:31:23;21.80;50.80
43651;DHT22;29247;50.944;5.382;2024-01-15T10:33:53;21.80;50.60
43651;DHT22;29247;50.944;5.382;2024-01-15T10:36:18;21.90;50.60
43651;DHT22;29247;50.944;5.382;2024-01-15T10:38:47;21.90;50.60
43651;DHT22;29247;50.944;5.382;2024-01-15T10:41:12;21.90;50.60
43651;DHT22;29247;50.944;5.382;2024-01-15T10:43:38;21.90;50.60
43651;DHT22;29247;50.944;5.382;2024-01-15T10:46:06;21.90;50.70
43651;DHT22;29247;50.944;5.382;2024-01-15T10:48:35;22.00;50.80
43651;DHT22;29247;50.944;5.382;2024-01-15T10:51:01;22.00;50.80
43651;DHT22;29247;50.944;5.382;2024-01-15T10:53:39;22.00;50.90
43651;DHT22;29247;50.944;5.382;2024-01-15T10:56:07;22.00;50.80
43651;DHT22;29247;50.944;5.382;2024-01-15T10:58:34;22.10;50.90
43651;DHT22;29247;50.944;5.382;2024-01-15T11:01:01;22.10;50.80
43651;DHT22;29247;50.944;5.382;2024-01-15T11:03:27;22.10;50.80
43651;DHT22;29247;50.944;5.382;2024-01-15T11:05:53;22.10;50.90
43651;DHT22;29247;50.944;5.382;2024-01-15T11:08:22;22.10;50.90
43651;DHT22;29247;50.944;5.382;2024-01-15T11:10:52;22.20;51.00
43651;DHT22;29247;50.944;5.382;2024-01-15T11:16:08;22.20;51.20
43651;DHT22;29247;50.944;5.382;2024-01-15T11:18:40;22.30;51.30
43651;DHT22;29247;50.944;5.382;2024-01-15T11:23:58;22.30;51.40
43651;DHT22;29247;50.944;5.382;2024-01-15T11:29:28;22.30;51.70
43651;DHT22;29247;50.944;5.382;2024-01-15T11:31:58;22.30;51.80
43651;DHT22;29247;50.944;5.382;2024-01-15T11:34:58;22.40;52.10
43651;DHT22;29247;50.944;5.382;2024-01-15T11:37:27;22.40;52.20
43651;DHT22;29247;50.944;5.382;2024-01-15T11:39:55;22.40;52.40
43651;DHT22;29247;50.944;5.382;2024-01-15T11:42:22;22.40;52.60
43651;DHT22;29247;50.944;5.382;2024-01-15T11:44:48;22.40;52.70
43651;DHT22;29247;50.944;5.382;2024-01-15T11:47:14;22.40;52.80
43651;DHT22;29247;50.944;5.382;2024-01-15T11:52:18;22.50;52.90
43651;DHT22;29247;50.944;5.382;2024-01-15T11:57:41;22.50;52.90
43651;DHT22;29247;50.944;5.382;2024-01-15T12:00:11;22.50;52.90
43651;DHT22;29247;50.944;5.382;2024-01-15T12:02:44;22.50;52.80
43651;DHT22;29247;50.944;5.382;2024-01-15T12:05:11;22.50;52.90
43651;DHT22;29247;50.944;5.382;2024-01-15T12:07:41;22.50;52.70
43651;DHT22;29247;50.944;5.382;2024-01-15T12:10:18;22.50;52.70
43651;DHT22;29247;50.944;5.382;2024-01-15T12:15:15;22.40;52.60
43651;DHT22;29247;50.944;5.382;2024-01-15T12:17:41;22.40;52.50
43651;DHT22;29247;50.944;5.382;2024-01-15T12:20:07;22.40;52.50
43651;DHT22;29247;50.944;5.382;2024-01-15T12:22:33;22.40;52.50
43651;DHT22;29247;50.944;5.382;2024-01-15T12:25:03;22.40;52.40
43651;DHT22;29247;50.944;5.382;2024-01-15T12:27:28;22.40;52.50
43651;DHT22;29247;50.944;5.382;2024-01-15T12:29:54;22.30;52.40
43651;DHT22;29247;50.944;5.382;2024-01-15T12:32:20;22.30;52.50
43651;DHT22;29247;50.944;5.382;2024-01-15T12:34:51;22.30;52.50
43651;DHT22;29247;50.944;5.382;2024-01-15T12:37:20;22.30;52.50
43651;DHT22;29247;50.944;5.382;2024-01-15T12:39:46;22.30;52.50
43651;DHT22;29247;50.944;5.382;2024-01-15T12:42:14;22.30;52.50
43651;DHT22;29247;50.944;5.382;2024-01-15T12:44:40;22.30;52.50
43651;DHT22;29247;50.944;5.382;2024-01-15T12:47:06;22.30;52.50
43651;DHT22;29247;50.944;5.382;2024-01-15T12:49:32;22.20;52.40
43651;DHT22;29247;50.944;5.382;2024-01-15T12:51:58;22.20;52.40
43651;DHT22;29247;50.944;5.382;2024-01-15T12:54:25;22.20;52.40
43651;DHT22;29247;50.944;5.382;2024-01-15T12:56:51;22.20;52.40
43651;DHT22;29247;50.944;5.382;2024-01-15T12:59:19;22.20;52.40
43651;DHT22;29247;50.944;5.382;2024-01-15T13:01:45;22.20;52.40
43651;DHT22;29247;50.944;5.382;2024-01-15T13:04:20;22.20;52.40
43651;DHT22;29247;50.944;5.382;2024-01-15T13:06:46;22.20;52.40
43651;DHT22;29247;50.944;5.382;2024-01-15T13:09:12;22.10;52.40
43651;DHT22;29247;50.944;5.382;2024-01-15T13:11:38;22.10;52.40
43651;DHT22;29247;50.944;5.382;2024-01-15T13:14:03;22.10;52.40
43651;DHT22;29247;50.944;5.382;2024-01-15T13:16:29;22.10;52.30
43651;DHT22;29247;50.944;5.382;2024-01-15T13:18:57;22.10;52.10
43651;DHT22;29247;50.944;5.382;2024-01-15T13:21:25;22.10;51.90
43651;DHT22;29247;50.944;5.382;2024-01-15T13:23:50;22.00;51.80
43651;DHT22;29247;50.944;5.382;2024-01-15T13:26:16;22.00;51.80
43651;DHT22;29247;50.944;5.382;2024-01-15T13:28:44;22.00;51.70
43651;DHT22;29247;50.944;5.382;2024-01-15T13:31:09;22.00;51.70
43651;DHT22;29247;50.944;5.382;2024-01-15T13:33:35;22.00;51.70
43651;DHT22;29247;50.944;5.382;2024-01-15T13:36:00;22.00;51.60
43651;DHT22;29247;50.944;5.382;2024-01-15T13:38:29;22.00;51.50
43651;DHT22;29247;50.944;5.382;2024-01-15T13:41:00;22.00;51.40
43651;DHT22;29247;50.944;5.382;2024-01-15T13:43:26;22.00;51.40
43651;DHT22;29247;50.944;5.382;2024-01-15T13:45:52;22.00;51.30
43651;DHT22;29247;50.944;5.382;2024-01-15T13:48:19;22.00;51.10
43651;DHT22;29247;50.944;5.382;2024-01-15T13:50:45;22.00;51.10
43651;DHT22;29247;50.944;5.382;2024-01-15T13:53:10;22.00;51.00
43651;DHT22;29247;50.944;5.382;2024-01-15T13:55:36;22.00;50.90
43651;DHT22;29247;50.944;5.382;2024-01-15T13:58:02;22.00;50.90
43651;DHT22;29247;50.944;5.382;2024-01-15T14:00:31;22.00;50.70
43651;DHT22;29247;50.944;5.382;2024-01-15T14:02:59;22.00;50.60
43651;DHT22;29247;50.944;5.382;2024-01-15T14:05:24;22.00;50.50
43651;DHT22;29247;50.944;5.382;2024-01-15T14:07:50;22.00;50.30
43651;DHT22;29247;50.944;5.382;2024-01-15T14:10:16;22.10;50.30
43651;DHT22;29247;50.944;5.382;2024-01-15T14:12:43;22.10;50.20
43651;DHT22;29247;50.944;5.382;2024-01-15T14:15:08;22.10;50.10
43651;DHT22;29247;50.944;5.382;2024-01-15T14:17:34;22.10;50.00
43651;DHT22;29247;50.944;5.382;2024-01-15T14:20:00;22.10;50.00
43651;DHT22;29247;50.944;5.382;2024-01-15T14:22:30;22.20;50.00
43651;DHT22;29247;50.944;5.382;2024-01-15T14:24:56;22.20;50.10
43651;DHT22;29247;50.944;5.382;2024-01-15T14:27:21;22.20;50.10
43651;DHT22;29247;50.944;5.382;2024-01-15T14:29:47;22.20;50.10
43651;DHT22;29247;50.944;5.382;2024-01-15T14:32:13;22.30;50.10
43651;DHT22;29247;50.944;5.382;2024-01-15T14:34:38;22.30;50.10
43651;DHT22;29247;50.944;5.382;2024-01-15T14:37:06;22.30;50.30
43651;DHT22;29247;50.944;5.382;2024-01-15T14:39:32;22.30;50.20
43651;DHT22;29247;50.944;5.382;2024-01-15T14:42:00;22.40;50.30
43651;DHT22;29247;50.944;5.382;2024-01-15T14:44:26;22.40;50.40
43651;DHT22;29247;50.944;5.382;2024-01-15T14:46:51;22.40;50.40
43651;DHT22;29247;50.944;5.382;2024-01-15T14:49:18;22.40;50.40
43651;DHT22;29247;50.944;5.382;2024-01-15T14:51:44;22.40;50.40
43651;DHT22;29247;50.944;5.382;2024-01-15T14:54:10;22.50;50.40
43651;DHT22;29247;50.944;5.382;2024-01-15T14:56:36;22.50;50.40
43651;DHT22;29247;50.944;5.382;2024-01-15T14:59:01;22.50;50.40
43651;DHT22;29247;50.944;5.382;2024-01-15T15:01:27;22.50;50.40
43651;DHT22;29247;50.944;5.382;2024-01-15T15:03:53;22.50;50.40
43651;DHT22;29247;50.944;5.382;2024-01-15T15:06:21;22.60;50.50
43651;DHT22;29247;50.944;5.382;2024-01-15T15:08:53;22.60;50.50
43651;DHT22;29247;50.944;5.382;2024-01-15T15:11:23;22.60;50.50
43651;DHT22;29247;50.944;5.382;2024-01-15T15:13:51;22.60;50.50
43651;DHT22;29247;50.944;5.382;2024-01-15T15:16:19;22.60;50.50
43651;DHT22;29247;50.944;5.382;2024-01-15T15:18:45;22.60;50.60
43651;DHT22;29247;50.944;5.382;2024-01-15T15:21:12;22.60;50.50
43651;DHT22;29247;50.944;5.382;2024-01-15T15:23:37;22.70;50.60
43651;DHT22;29247;50.944;5.382;2024-01-15T15:26:06;22.70;50.60
43651;DHT22;29247;50.944;5.382;2024-01-15T15:28:31;22.70;51.20
43651;DHT22;29247;50.944;5.382;2024-01-15T15:30:57;22.70;50.70
43651;DHT22;29247;50.944;5.382;2024-01-15T15:33:23;22.70;50.60
43651;DHT22;29247;50.944;5.382;2024-01-15T15:35:53;22.70;50.70
43651;DHT22;29247;50.944;5.382;2024-01-15T15:38:19;22.70;50.70
43651;DHT22;29247;50.944;5.382;2024-01-15T15:40:45;22.70;50.60
43651;DHT22;29247;50.944;5.382;2024-01-15T15:43:10;22.70;50.60
43651;DHT22;29247;50.944;5.382;2024-01-15T15:45:36;22.80;50.70